sensor_id;sensor_type;location;lat;lon;timestamp;P1;durP1;ratioP1;P2;durP2;ratioP2
18659;SDS011;9459;50.254;19.014;2023-02-20T00:01:28;22.08;;;7.10;;
18659;SDS011;9459;50.254;19.014;2023-02-20T00:03:57;17.08;;;6.50;;
18659;SDS011;9459;50.254;19.014;2023-02-20T00:06:26;18.83;;;6.95;;
18659;SDS011;9459;50.254;19.014;2023-02-20T00:08:55;16.77;;;6.72;;
18659;SDS011;9459;50.254;19.014;2023-02-20T00:11:25;17.05;;;6.68;;
18659;SDS011;9459;50.254;19.014;2023-02-20T00:13:53;17.52;;;6.72;;
18659;SDS011;9459;50.254;19.014;2023-02-20T00:16:21;16.50;;;6.47;;
18659;SDS011;9459;50.254;19.014;2023-02-20T00:18:50;17.70;;;5.90;;
18659;SDS011;9459;50.254;19.014;2023-02-20T00:21:19;14.98;;;6.60;;
18659;SDS011;9459;50.254;19.014;2023-02-20T00:23:47;15.10;;;5.90;;
18659;SDS011;9459;50.254;19.014;2023-02-20T00:26:15;18.10;;;6.72;;
18659;SDS011;9459;50.254;19.014;2023-02-20T00:28:45;14.80;;;5.63;;
18659;SDS011;9459;50.254;19.014;2023-02-20T00:31:15;16.23;;;5.80;;
18659;SDS011;9459;50.254;19.014;2023-02-20T00:33:46;19.85;;;6.97;;
18659;SDS011;9459;50.254;19.014;2023-02-20T00:36:14;17.30;;;6.70;;
18659;SDS011;9459;50.254;19.014;2023-02-20T00:38:44;15.15;;;6.32;;
18659;SDS011;9459;50.254;19.014;2023-02-20T00:41:13;18.60;;;6.97;;
18659;SDS011;9459;50.254;19.014;2023-02-20T00:43:44;20.10;;;8.00;;
18659;SDS011;9459;50.254;19.014;2023-02-20T00:46:13;21.02;;;8.75;;
18659;SDS011;9459;50.254;19.014;2023-02-20T00:48:42;21.70;;;9.02;;
18659;SDS011;9459;50.254;19.014;2023-02-20T00:51:10;20.83;;;8.68;;
18659;SDS011;9459;50.254;19.014;2023-02-20T00:53:40;20.17;;;9.05;;
18659;SDS011;9459;50.254;19.014;2023-02-20T00:56:09;22.58;;;9.60;;
18659;SDS011;9459;50.254;19.014;2023-02-20T00:58:37;22.15;;;9.45;;
18659;SDS011;9459;50.254;19.014;2023-02-20T01:01:07;19.40;;;8.73;;
18659;SDS011;9459;50.254;19.014;2023-02-20T01:03:36;22.13;;;9.00;;
18659;SDS011;9459;50.254;19.014;2023-02-20T01:06:05;18.25;;;7.75;;
18659;SDS011;9459;50.254;19.014;2023-02-20T01:08:33;18.75;;;8.60;;
18659;SDS011;9459;50.254;19.014;2023-02-20T01:11:02;20.50;;;8.35;;
18659;SDS011;9459;50.254;19.014;2023-02-20T01:13:30;20.25;;;9.13;;
18659;SDS011;9459;50.254;19.014;2023-02-20T01:15:59;18.98;;;9.85;;
18659;SDS011;9459;50.254;19.014;2023-02-20T01:18:29;22.90;;;9.95;;
18659;SDS011;9459;50.254;19.014;2023-02-20T01:20:58;24.08;;;9.90;;
18659;SDS011;9459;50.254;19.014;2023-02-20T01:23:26;21.00;;;9.07;;
18659;SDS011;9459;50.254;19.014;2023-02-20T01:25:55;17.67;;;8.75;;
18659;SDS011;9459;50.254;19.014;2023-02-20T01:28:23;15.80;;;8.02;;
18659;SDS011;9459;50.254;19.014;2023-02-20T01:30:52;16.48;;;7.55;;
18659;SDS011;9459;50.254;19.014;2023-02-20T01:33:20;15.70;;;7.78;;
18659;SDS011;9459;50.254;19.014;2023-02-20T01:35:51;15.52;;;7.78;;
18659;SDS011;9459;50.254;19.014;2023-02-20T01:38:19;15.43;;;7.05;;
18659;SDS011;9459;50.254;19.014;2023-02-20T01:40:48;14.23;;;6.47;;
18659;SDS011;9459;50.254;19.014;2023-02-20T01:43:16;15.10;;;7.22;;
18659;SDS011;9459;50.254;19.014;2023-02-20T01:45:45;18.02;;;8.15;;
18659;SDS011;9459;50.254;19.014;2023-02-20T01:48:18;18.90;;;6.82;;
18659;SDS011;9459;50.254;19.014;2023-02-20T01:50:47;17.67;;;7.07;;
18659;SDS011;9459;50.254;19.014;2023-02-20T01:53:18;14.43;;;6.65;;
18659;SDS011;9459;50.254;19.014;2023-02-20T01:55:50;14.45;;;7.03;;
18659;SDS011;9459;50.254;19.014;2023-02-20T01:58:21;16.25;;;6.80;;
18659;SDS011;9459;50.254;19.014;2023-02-20T02:00:51;16.77;;;6.88;;
18659;SDS011;9459;50.254;19.014;2023-02-20T02:03:21;13.73;;;6.55;;
18659;SDS011;9459;50.254;19.014;2023-02-20T02:05:53;16.45;;;6.82;;
18659;SDS011;9459;50.254;19.014;2023-02-20T02:08:29;18.15;;;8.23;;
18659;SDS011;9459;50.254;19.014;2023-02-20T02:10:58;21.45;;;10.13;;
18659;SDS011;9459;50.254;19.014;2023-02-20T02:13:29;23.60;;;8.93;;
18659;SDS011;9459;50.254;19.014;2023-02-20T02:16:00;15.40;;;7.03;;
18659;SDS011;9459;50.254;19.014;2023-02-20T02:18:39;13.43;;;5.90;;
18659;SDS011;9459;50.254;19.014;2023-02-20T02:24:29;12.50;;;4.90;;
18659;SDS011;9459;50.254;19.014;2023-02-20T02:27:30;10.93;;;4.65;;
18659;SDS011;9459;50.254;19.014;2023-02-20T02:36:08;10.82;;;4.75;;
18659;SDS011;9459;50.254;19.014;2023-02-20T02:38:50;10.35;;;4.63;;
18659;SDS011;9459;50.254;19.014;2023-02-20T02:41:26;14.68;;;5.22;;
18659;SDS011;9459;50.254;19.014;2023-02-20T02:44:03;15.95;;;5.15;;
18659;SDS011;9459;50.254;19.014;2023-02-20T02:46:38;10.35;;;4.45;;
18659;SDS011;9459;50.254;19.014;2023-02-20T02:49:10;9.18;;;4.30;;
18659;SDS011;9459;50.254;19.014;2023-02-20T02:51:46;10.93;;;3.85;;
18659;SDS011;9459;50.254;19.014;2023-02-20T02:54:17;7.90;;;3.90;;
18659;SDS011;9459;50.254;19.014;2023-02-20T02:56:48;10.35;;;4.07;;
18659;SDS011;9459;50.254;19.014;2023-02-20T02:59:17;11.80;;;3.63;;
18659;SDS011;9459;50.254;19.014;2023-02-20T03:04:17;12.18;;;4.45;;
18659;SDS011;9459;50.254;19.014;2023-02-20T03:06:51;8.43;;;3.45;;
18659;SDS011;9459;50.254;19.014;2023-02-20T03:09:22;11.13;;;4.07;;
18659;SDS011;9459;50.254;19.014;2023-02-20T03:11:52;11.40;;;3.58;;
18659;SDS011;9459;50.254;19.014;2023-02-20T03:14:22;9.18;;;4.32;;
18659;SDS011;9459;50.254;19.014;2023-02-20T03:17:12;9.27;;;3.72;;
18659;SDS011;9459;50.254;19.014;2023-02-20T03:19:43;13.00;;;3.78;;
18659;SDS011;9459;50.254;19.014;2023-02-20T03:22:18;11.15;;;4.45;;
18659;SDS011;9459;50.254;19.014;2023-02-20T03:24:48;9.70;;;3.85;;
18659;SDS011;9459;50.254;19.014;2023-02-20T03:27:27;9.73;;;3.90;;
18659;SDS011;9459;50.254;19.014;2023-02-20T03:30:05;9.68;;;3.80;;
18659;SDS011;9459;50.254;19.014;2023-02-20T03:32:37;9.60;;;3.60;;
18659;SDS011;9459;50.254;19.014;2023-02-20T03:35:24;9.38;;;3.75;;
18659;SDS011;9459;50.254;19.014;2023-02-20T03:38:12;9.98;;;3.78;;
18659;SDS011;9459;50.254;19.014;2023-02-20T03:40:59;10.80;;;3.42;;
18659;SDS011;9459;50.254;19.014;2023-02-20T03:43:45;8.00;;;3.72;;
18659;SDS011;9459;50.254;19.014;2023-02-20T03:46:15;10.23;;;3.92;;
18659;SDS011;9459;50.254;19.014;2023-02-20T03:48:49;10.57;;;3.40;;
18659;SDS011;9459;50.254;19.014;2023-02-20T03:51:20;10.05;;;4.47;;
18659;SDS011;9459;50.254;19.014;2023-02-20T03:53:50;8.40;;;4.00;;
18659;SDS011;9459;50.254;19.014;2023-02-20T03:56:21;12.48;;;4.63;;
18659;SDS011;9459;50.254;19.014;2023-02-20T03:58:54;10.82;;;4.57;;
18659;SDS011;9459;50.254;19.014;2023-02-20T04:01:25;14.48;;;5.30;;
18659;SDS011;9459;50.254;19.014;2023-02-20T04:03:55;13.18;;;5.60;;
18659;SDS011;9459;50.254;19.014;2023-02-20T04:06:26;13.35;;;5.35;;
18659;SDS011;9459;50.254;19.014;2023-02-20T04:08:59;10.90;;;5.53;;
18659;SDS011;9459;50.254;19.014;2023-02-20T04:11:32;14.70;;;6.30;;
18659;SDS011;9459;50.254;19.014;2023-02-20T04:14:03;12.40;;;4.72;;
18659;SDS011;9459;50.254;19.014;2023-02-20T04:16:33;10.00;;;4.05;;
18659;SDS011;9459;50.254;19.014;2023-02-20T04:19:04;9.88;;;3.70;;
18659;SDS011;9459;50.254;19.014;2023-02-20T04:21:33;9.60;;;3.90;;
18659;SDS011;9459;50.254;19.014;2023-02-20T04:24:07;10.57;;;3.40;;
18659;SDS011;9459;50.254;19.014;2023-02-20T04:26:38;9.38;;;3.80;;
18659;SDS011;9459;50.254;19.014;2023-02-20T04:29:07;9.90;;;4.05;;
18659;SDS011;9459;50.254;19.014;2023-02-20T04:31:36;10.52;;;3.42;;
18659;SDS011;9459;50.254;19.014;2023-02-20T04:34:04;9.85;;;4.13;;
18659;SDS011;9459;50.254;19.014;2023-02-20T04:36:33;9.65;;;3.60;;
18659;SDS011;9459;50.254;19.014;2023-02-20T04:39:01;12.50;;;4.28;;
18659;SDS011;9459;50.254;19.014;2023-02-20T04:41:32;8.20;;;3.92;;
18659;SDS011;9459;50.254;19.014;2023-02-20T04:44:00;13.50;;;4.53;;
18659;SDS011;9459;50.254;19.014;2023-02-20T04:46:47;7.47;;;3.95;;
18659;SDS011;9459;50.254;19.014;2023-02-20T04:49:15;12.30;;;4.72;;
18659;SDS011;9459;50.254;19.014;2023-02-20T04:51:44;11.35;;;4.03;;
18659;SDS011;9459;50.254;19.014;2023-02-20T04:54:13;10.50;;;4.03;;
18659;SDS011;9459;50.254;19.014;2023-02-20T04:56:43;9.48;;;2.85;;
18659;SDS011;9459;50.254;19.014;2023-02-20T04:59:12;8.57;;;3.78;;
18659;SDS011;9459;50.254;19.014;2023-02-20T05:01:40;11.23;;;3.92;;
18659;SDS011;9459;50.254;19.014;2023-02-20T05:04:14;14.80;;;4.32;;
18659;SDS011;9459;50.254;19.014;2023-02-20T05:06:44;10.32;;;4.28;;
18659;SDS011;9459;50.254;19.014;2023-02-20T05:09:15;11.15;;;4.43;;
18659;SDS011;9459;50.254;19.014;2023-02-20T05:11:45;12.45;;;5.13;;
18659;SDS011;9459;50.254;19.014;2023-02-20T05:14:14;9.80;;;4.47;;
18659;SDS011;9459;50.254;19.014;2023-02-20T05:16:43;14.27;;;5.30;;
18659;SDS011;9459;50.254;19.014;2023-02-20T05:19:12;11.43;;;6.10;;
18659;SDS011;9459;50.254;19.014;2023-02-20T05:21:41;9.63;;;5.32;;
18659;SDS011;9459;50.254;19.014;2023-02-20T05:24:28;13.77;;;5.47;;
18659;SDS011;9459;50.254;19.014;2023-02-20T05:26:59;12.15;;;5.45;;
18659;SDS011;9459;50.254;19.014;2023-02-20T05:29:28;13.35;;;5.70;;
18659;SDS011;9459;50.254;19.014;2023-02-20T05:31:56;14.50;;;5.82;;
18659;SDS011;9459;50.254;19.014;2023-02-20T05:34:25;11.55;;;5.63;;
18659;SDS011;9459;50.254;19.014;2023-02-20T05:36:54;13.73;;;5.22;;
18659;SDS011;9459;50.254;19.014;2023-02-20T05:39:23;12.15;;;5.40;;
18659;SDS011;9459;50.254;19.014;2023-02-20T05:41:51;11.85;;;4.88;;
18659;SDS011;9459;50.254;19.014;2023-02-20T05:44:21;11.20;;;4.75;;
18659;SDS011;9459;50.254;19.014;2023-02-20T05:46:50;10.80;;;5.22;;
18659;SDS011;9459;50.254;19.014;2023-02-20T05:49:19;12.77;;;4.80;;
18659;SDS011;9459;50.254;19.014;2023-02-20T05:51:48;14.77;;;6.00;;
18659;SDS011;9459;50.254;19.014;2023-02-20T05:54:17;14.40;;;6.03;;
18659;SDS011;9459;50.254;19.014;2023-02-20T05:56:46;13.43;;;5.22;;
18659;SDS011;9459;50.254;19.014;2023-02-20T05:59:16;11.43;;;5.07;;
18659;SDS011;9459;50.254;19.014;2023-02-20T06:01:47;15.98;;;5.93;;
18659;SDS011;9459;50.254;19.014;2023-02-20T06:04:18;12.25;;;5.72;;
18659;SDS011;9459;50.254;19.014;2023-02-20T06:06:47;10.75;;;4.95;;
18659;SDS011;9459;50.254;19.014;2023-02-20T06:09:15;9.88;;;4.93;;
18659;SDS011;9459;50.254;19.014;2023-02-20T06:11:47;11.98;;;5.88;;
18659;SDS011;9459;50.254;19.014;2023-02-20T06:14:16;13.85;;;6.00;;
18659;SDS011;9459;50.254;19.014;2023-02-20T06:16:47;9.23;;;4.65;;
18659;SDS011;9459;50.254;19.014;2023-02-20T06:19:18;13.35;;;5.13;;
18659;SDS011;9459;50.254;19.014;2023-02-20T06:21:48;12.98;;;4.82;;
18659;SDS011;9459;50.254;19.014;2023-02-20T06:24:17;10.85;;;5.20;;
18659;SDS011;9459;50.254;19.014;2023-02-20T06:26:47;10.73;;;4.97;;
18659;SDS011;9459;50.254;19.014;2023-02-20T06:29:16;10.95;;;5.32;;
18659;SDS011;9459;50.254;19.014;2023-02-20T06:31:46;10.45;;;5.30;;
18659;SDS011;9459;50.254;19.014;2023-02-20T06:34:15;8.25;;;4.30;;
18659;SDS011;9459;50.254;19.014;2023-02-20T06:36:44;10.05;;;5.00;;
18659;SDS011;9459;50.254;19.014;2023-02-20T06:39:13;12.25;;;5.18;;
18659;SDS011;9459;50.254;19.014;2023-02-20T06:41:42;14.43;;;5.85;;
18659;SDS011;9459;50.254;19.014;2023-02-20T06:44:11;12.48;;;5.15;;
18659;SDS011;9459;50.254;19.014;2023-02-20T06:46:40;12.27;;;5.18;;
18659;SDS011;9459;50.254;19.014;2023-02-20T06:49:10;13.98;;;6.07;;
18659;SDS011;9459;50.254;19.014;2023-02-20T06:51:39;13.90;;;6.25;;
18659;SDS011;9459;50.254;19.014;2023-02-20T06:54:08;12.55;;;5.38;;
18659;SDS011;9459;50.254;19.014;2023-02-20T06:56:38;12.25;;;5.85;;
18659;SDS011;9459;50.254;19.014;2023-02-20T06:59:06;11.10;;;5.13;;
18659;SDS011;9459;50.254;19.014;2023-02-20T07:01:37;14.65;;;5.07;;
18659;SDS011;9459;50.254;19.014;2023-02-20T07:04:06;12.32;;;5.15;;
18659;SDS011;9459;50.254;19.014;2023-02-20T07:06:38;10.50;;;5.88;;
18659;SDS011;9459;50.254;19.014;2023-02-20T07:09:07;12.98;;;5.63;;
18659;SDS011;9459;50.254;19.014;2023-02-20T07:11:37;11.95;;;5.45;;
18659;SDS011;9459;50.254;19.014;2023-02-20T07:14:05;13.48;;;6.28;;
18659;SDS011;9459;50.254;19.014;2023-02-20T07:16:34;12.45;;;6.07;;
18659;SDS011;9459;50.254;19.014;2023-02-20T07:19:02;11.25;;;6.03;;
18659;SDS011;9459;50.254;19.014;2023-02-20T07:21:31;11.90;;;5.95;;
18659;SDS011;9459;50.254;19.014;2023-02-20T07:24:01;15.55;;;7.47;;
18659;SDS011;9459;50.254;19.014;2023-02-20T07:26:30;24.17;;;13.33;;
18659;SDS011;9459;50.254;19.014;2023-02-20T07:28:58;16.33;;;8.80;;
18659;SDS011;9459;50.254;19.014;2023-02-20T07:31:27;15.27;;;8.23;;
18659;SDS011;9459;50.254;19.014;2023-02-20T07:33:56;14.00;;;6.38;;
18659;SDS011;9459;50.254;19.014;2023-02-20T07:36:25;13.65;;;6.82;;
18659;SDS011;9459;50.254;19.014;2023-02-20T07:38:54;14.57;;;6.97;;
18659;SDS011;9459;50.254;19.014;2023-02-20T07:41:25;14.00;;;7.32;;
18659;SDS011;9459;50.254;19.014;2023-02-20T07:43:57;11.82;;;6.70;;
18659;SDS011;9459;50.254;19.014;2023-02-20T07:46:26;11.32;;;6.55;;
18659;SDS011;9459;50.254;19.014;2023-02-20T07:49:00;14.70;;;6.40;;
18659;SDS011;9459;50.254;19.014;2023-02-20T07:51:28;14.00;;;7.15;;
18659;SDS011;9459;50.254;19.014;2023-02-20T07:53:57;38.05;;;17.98;;
18659;SDS011;9459;50.254;19.014;2023-02-20T07:56:27;16.15;;;7.95;;
18659;SDS011;9459;50.254;19.014;2023-02-20T07:58:56;12.93;;;6.90;;
18659;SDS011;9459;50.254;19.014;2023-02-20T08:01:27;14.97;;;6.90;;
18659;SDS011;9459;50.254;19.014;2023-02-20T08:03:56;13.55;;;7.35;;
18659;SDS011;9459;50.254;19.014;2023-02-20T08:06:24;10.88;;;7.18;;
18659;SDS011;9459;50.254;19.014;2023-02-20T08:08:54;12.27;;;7.07;;
18659;SDS011;9459;50.254;19.014;2023-02-20T08:11:23;12.70;;;7.22;;
18659;SDS011;9459;50.254;19.014;2023-02-20T08:13:54;12.55;;;6.47;;
18659;SDS011;9459;50.254;19.014;2023-02-20T08:16:22;15.80;;;7.57;;
18659;SDS011;9459;50.254;19.014;2023-02-20T08:18:52;13.07;;;6.70;;
18659;SDS011;9459;50.254;19.014;2023-02-20T08:21:21;15.23;;;8.63;;
18659;SDS011;9459;50.254;19.014;2023-02-20T08:23:50;15.15;;;7.78;;
18659;SDS011;9459;50.254;19.014;2023-02-20T08:26:21;14.02;;;7.75;;
18659;SDS011;9459;50.254;19.014;2023-02-20T08:28:51;17.13;;;7.72;;
18659;SDS011;9459;50.254;19.014;2023-02-20T08:31:21;12.30;;;7.35;;
18659;SDS011;9459;50.254;19.014;2023-02-20T08:33:58;14.13;;;6.72;;
18659;SDS011;9459;50.254;19.014;2023-02-20T08:36:27;11.95;;;6.97;;
18659;SDS011;9459;50.254;19.014;2023-02-20T08:38:56;14.93;;;7.40;;
18659;SDS011;9459;50.254;19.014;2023-02-20T08:41:26;12.93;;;7.07;;
18659;SDS011;9459;50.254;19.014;2023-02-20T08:43:55;11.52;;;5.97;;
18659;SDS011;9459;50.254;19.014;2023-02-20T08:46:25;13.48;;;6.30;;
18659;SDS011;9459;50.254;19.014;2023-02-20T08:48:54;15.95;;;7.45;;
18659;SDS011;9459;50.254;19.014;2023-02-20T08:51:23;13.80;;;6.90;;
18659;SDS011;9459;50.254;19.014;2023-02-20T09:02:05;13.65;;;7.22;;
18659;SDS011;9459;50.254;19.014;2023-02-20T09:04:35;14.13;;;6.97;;
18659;SDS011;9459;50.254;19.014;2023-02-20T09:07:03;12.02;;;6.97;;
18659;SDS011;9459;50.254;19.014;2023-02-20T09:09:32;11.68;;;7.10;;
18659;SDS011;9459;50.254;19.014;2023-02-20T09:12:00;17.95;;;7.03;;
18659;SDS011;9459;50.254;19.014;2023-02-20T09:14:29;13.43;;;6.88;;
18659;SDS011;9459;50.254;19.014;2023-02-20T09:16:57;12.30;;;6.85;;
18659;SDS011;9459;50.254;19.014;2023-02-20T09:19:27;11.40;;;6.50;;
18659;SDS011;9459;50.254;19.014;2023-02-20T09:21:56;15.40;;;7.03;;
18659;SDS011;9459;50.254;19.014;2023-02-20T09:24:24;9.65;;;6.22;;
18659;SDS011;9459;50.254;19.014;2023-02-20T09:26:57;11.98;;;6.68;;
18659;SDS011;9459;50.254;19.014;2023-02-20T09:29:26;12.23;;;6.28;;
18659;SDS011;9459;50.254;19.014;2023-02-20T09:31:55;12.00;;;7.25;;
18659;SDS011;9459;50.254;19.014;2023-02-20T09:34:24;13.00;;;6.85;;
18659;SDS011;9459;50.254;19.014;2023-02-20T09:36:53;13.88;;;6.95;;
18659;SDS011;9459;50.254;19.014;2023-02-20T09:39:22;13.30;;;7.20;;
18659;SDS011;9459;50.254;19.014;2023-02-20T09:41:55;11.88;;;6.50;;
18659;SDS011;9459;50.254;19.014;2023-02-20T09:47:03;13.55;;;6.88;;
18659;SDS011;9459;50.254;19.014;2023-02-20T09:49:35;15.45;;;7.10;;
18659;SDS011;9459;50.254;19.014;2023-02-20T09:52:09;12.88;;;7.38;;
18659;SDS011;9459;50.254;19.014;2023-02-20T09:54:42;11.25;;;6.93;;
18659;SDS011;9459;50.254;19.014;2023-02-20T09:57:15;12.48;;;7.05;;
18659;SDS011;9459;50.254;19.014;2023-02-20T09:59:46;12.82;;;7.43;;
18659;SDS011;9459;50.254;19.014;2023-02-20T10:02:17;18.52;;;8.27;;
18659;SDS011;9459;50.254;19.014;2023-02-20T10:04:47;15.50;;;6.97;;
18659;SDS011;9459;50.254;19.014;2023-02-20T10:07:28;11.75;;;6.53;;
18659;SDS011;9459;50.254;19.014;2023-02-20T10:09:59;10.48;;;6.15;;
18659;SDS011;9459;50.254;19.014;2023-02-20T10:12:28;11.20;;;6.30;;
18659;SDS011;9459;50.254;19.014;2023-02-20T10:15:11;8.73;;;5.93;;
18659;SDS011;9459;50.254;19.014;2023-02-20T10:17:48;10.27;;;6.25;;
18659;SDS011;9459;50.254;19.014;2023-02-20T10:20:22;10.27;;;5.60;;
18659;SDS011;9459;50.254;19.014;2023-02-20T10:22:57;10.40;;;5.60;;
18659;SDS011;9459;50.254;19.014;2023-02-20T10:25:32;10.02;;;5.50;;
18659;SDS011;9459;50.254;19.014;2023-02-20T10:28:02;8.57;;;5.20;;
18659;SDS011;9459;50.254;19.014;2023-02-20T10:33:03;8.13;;;5.50;;
18659;SDS011;9459;50.254;19.014;2023-02-20T10:38:15;9.05;;;4.93;;
18659;SDS011;9459;50.254;19.014;2023-02-20T10:40:47;9.90;;;5.28;;
18659;SDS011;9459;50.254;19.014;2023-02-20T10:43:18;9.65;;;4.70;;
18659;SDS011;9459;50.254;19.014;2023-02-20T10:45:51;8.07;;;4.78;;
18659;SDS011;9459;50.254;19.014;2023-02-20T10:48:21;9.02;;;5.53;;
18659;SDS011;9459;50.254;19.014;2023-02-20T10:50:53;13.15;;;5.78;;
18659;SDS011;9459;50.254;19.014;2023-02-20T10:53:34;11.35;;;5.95;;
18659;SDS011;9459;50.254;19.014;2023-02-20T10:56:07;9.73;;;4.93;;
18659;SDS011;9459;50.254;19.014;2023-02-20T10:58:38;8.77;;;5.03;;
18659;SDS011;9459;50.254;19.014;2023-02-20T11:01:08;9.10;;;4.78;;
18659;SDS011;9459;50.254;19.014;2023-02-20T11:03:40;9.05;;;5.07;;
18659;SDS011;9459;50.254;19.014;2023-02-20T11:06:13;7.45;;;4.90;;
18659;SDS011;9459;50.254;19.014;2023-02-20T11:08:45;7.65;;;4.65;;
18659;SDS011;9459;50.254;19.014;2023-02-20T11:11:24;7.45;;;4.47;;
18659;SDS011;9459;50.254;19.014;2023-02-20T11:14:00;10.70;;;5.95;;
18659;SDS011;9459;50.254;19.014;2023-02-20T11:16:30;11.50;;;6.68;;
18659;SDS011;9459;50.254;19.014;2023-02-20T11:19:05;10.88;;;6.13;;
18659;SDS011;9459;50.254;19.014;2023-02-20T11:21:37;11.10;;;6.63;;
18659;SDS011;9459;50.254;19.014;2023-02-20T11:24:25;10.30;;;6.05;;
18659;SDS011;9459;50.254;19.014;2023-02-20T11:26:59;10.00;;;7.05;;
18659;SDS011;9459;50.254;19.014;2023-02-20T11:29:48;10.15;;;6.72;;
18659;SDS011;9459;50.254;19.014;2023-02-20T11:32:27;10.05;;;5.97;;
18659;SDS011;9459;50.254;19.014;2023-02-20T11:41:00;11.23;;;6.70;;
18659;SDS011;9459;50.254;19.014;2023-02-20T11:43:33;10.10;;;6.63;;
18659;SDS011;9459;50.254;19.014;2023-02-20T11:46:06;14.00;;;8.05;;
18659;SDS011;9459;50.254;19.014;2023-02-20T11:48:35;14.57;;;8.60;;
18659;SDS011;9459;50.254;19.014;2023-02-20T11:51:09;21.63;;;12.00;;
18659;SDS011;9459;50.254;19.014;2023-02-20T11:54:11;12.88;;;7.75;;
18659;SDS011;9459;50.254;19.014;2023-02-20T11:56:56;14.63;;;9.10;;
18659;SDS011;9459;50.254;19.014;2023-02-20T11:59:29;17.83;;;10.18;;
18659;SDS011;9459;50.254;19.014;2023-02-20T12:02:22;25.70;;;13.13;;
18659;SDS011;9459;50.254;19.014;2023-02-20T12:05:05;19.30;;;10.38;;
18659;SDS011;9459;50.254;19.014;2023-02-20T12:07:37;26.88;;;13.93;;
18659;SDS011;9459;50.254;19.014;2023-02-20T12:10:24;27.08;;;15.23;;
18659;SDS011;9459;50.254;19.014;2023-02-20T12:12:57;23.50;;;14.15;;
18659;SDS011;9459;50.254;19.014;2023-02-20T12:15:27;16.60;;;11.55;;
18659;SDS011;9459;50.254;19.014;2023-02-20T12:23:32;37.42;;;20.70;;
18659;SDS011;9459;50.254;19.014;2023-02-20T12:26:08;22.15;;;13.45;;
18659;SDS011;9459;50.254;19.014;2023-02-20T12:28:44;27.02;;;16.60;;
18659;SDS011;9459;50.254;19.014;2023-02-20T12:31:21;17.58;;;11.60;;
18659;SDS011;9459;50.254;19.014;2023-02-20T12:34:04;17.70;;;11.77;;
18659;SDS011;9459;50.254;19.014;2023-02-20T12:36:46;20.83;;;14.15;;
18659;SDS011;9459;50.254;19.014;2023-02-20T12:39:19;18.20;;;12.63;;
18659;SDS011;9459;50.254;19.014;2023-02-20T12:41:57;15.88;;;11.18;;
18659;SDS011;9459;50.254;19.014;2023-02-20T12:44:46;18.92;;;12.30;;
18659;SDS011;9459;50.254;19.014;2023-02-20T12:47:25;12.57;;;8.87;;
18659;SDS011;9459;50.254;19.014;2023-02-20T12:50:00;15.35;;;10.10;;
18659;SDS011;9459;50.254;19.014;2023-02-20T12:52:43;14.98;;;9.48;;
18659;SDS011;9459;50.254;19.014;2023-02-20T12:55:21;13.40;;;8.55;;
18659;SDS011;9459;50.254;19.014;2023-02-20T12:57:53;14.65;;;9.50;;
18659;SDS011;9459;50.254;19.014;2023-02-20T13:00:35;14.52;;;9.48;;
18659;SDS011;9459;50.254;19.014;2023-02-20T13:03:07;13.13;;;9.95;;
18659;SDS011;9459;50.254;19.014;2023-02-20T13:05:38;10.48;;;8.07;;
18659;SDS011;9459;50.254;19.014;2023-02-20T13:08:10;12.82;;;8.55;;
18659;SDS011;9459;50.254;19.014;2023-02-20T13:10:44;10.73;;;8.15;;
18659;SDS011;9459;50.254;19.014;2023-02-20T13:13:16;13.95;;;10.05;;
18659;SDS011;9459;50.254;19.014;2023-02-20T13:15:48;13.30;;;8.52;;
18659;SDS011;9459;50.254;19.014;2023-02-20T13:18:22;12.52;;;9.10;;
18659;SDS011;9459;50.254;19.014;2023-02-20T13:20:55;12.43;;;8.38;;
18659;SDS011;9459;50.254;19.014;2023-02-20T13:23:27;14.13;;;8.43;;
18659;SDS011;9459;50.254;19.014;2023-02-20T13:25:56;15.15;;;7.65;;
18659;SDS011;9459;50.254;19.014;2023-02-20T13:28:28;13.52;;;8.45;;
18659;SDS011;9459;50.254;19.014;2023-02-20T13:31:16;11.18;;;7.68;;
18659;SDS011;9459;50.254;19.014;2023-02-20T13:33:47;12.73;;;8.43;;
18659;SDS011;9459;50.254;19.014;2023-02-20T13:39:29;17.15;;;9.05;;
18659;SDS011;9459;50.254;19.014;2023-02-20T13:44:57;12.30;;;8.80;;
18659;SDS011;9459;50.254;19.014;2023-02-20T13:47:34;13.85;;;10.38;;
18659;SDS011;9459;50.254;19.014;2023-02-20T13:52:59;10.35;;;7.70;;
18659;SDS011;9459;50.254;19.014;2023-02-20T13:55:30;12.38;;;8.55;;
18659;SDS011;9459;50.254;19.014;2023-02-20T13:58:03;10.40;;;7.18;;
18659;SDS011;9459;50.254;19.014;2023-02-20T14:00:40;13.82;;;9.32;;
18659;SDS011;9459;50.254;19.014;2023-02-20T14:03:18;17.70;;;11.38;;
18659;SDS011;9459;50.254;19.014;2023-02-20T14:06:02;12.25;;;8.65;;
18659;SDS011;9459;50.254;19.014;2023-02-20T14:08:32;14.32;;;8.32;;
18659;SDS011;9459;50.254;19.014;2023-02-20T14:11:04;18.67;;;10.50;;
18659;SDS011;9459;50.254;19.014;2023-02-20T14:13:33;11.80;;;8.05;;
18659;SDS011;9459;50.254;19.014;2023-02-20T14:18:58;10.32;;;7.47;;
18659;SDS011;9459;50.254;19.014;2023-02-20T14:21:28;12.88;;;8.32;;
18659;SDS011;9459;50.254;19.014;2023-02-20T14:23:57;22.33;;;14.52;;
18659;SDS011;9459;50.254;19.014;2023-02-20T14:26:40;12.23;;;8.27;;
18659;SDS011;9459;50.254;19.014;2023-02-20T14:29:18;11.05;;;8.25;;
18659;SDS011;9459;50.254;19.014;2023-02-20T14:31:49;13.75;;;8.77;;
18659;SDS011;9459;50.254;19.014;2023-02-20T14:34:20;14.65;;;8.57;;
18659;SDS011;9459;50.254;19.014;2023-02-20T14:36:54;16.75;;;10.15;;
18659;SDS011;9459;50.254;19.014;2023-02-20T14:39:32;17.23;;;10.88;;
18659;SDS011;9459;50.254;19.014;2023-02-20T14:42:10;18.20;;;9.93;;
18659;SDS011;9459;50.254;19.014;2023-02-20T14:44:41;17.55;;;10.07;;
18659;SDS011;9459;50.254;19.014;2023-02-20T14:47:11;18.27;;;10.43;;
18659;SDS011;9459;50.254;19.014;2023-02-20T14:49:42;17.65;;;10.60;;
18659;SDS011;9459;50.254;19.014;2023-02-20T14:52:15;15.57;;;9.13;;
18659;SDS011;9459;50.254;19.014;2023-02-20T14:54:55;14.55;;;9.02;;
18659;SDS011;9459;50.254;19.014;2023-02-20T14:57:25;13.30;;;8.52;;
18659;SDS011;9459;50.254;19.014;2023-02-20T15:00:07;17.15;;;9.77;;
18659;SDS011;9459;50.254;19.014;2023-02-20T15:02:50;21.42;;;11.10;;
18659;SDS011;9459;50.254;19.014;2023-02-20T15:05:27;13.63;;;9.57;;
18659;SDS011;9459;50.254;19.014;2023-02-20T15:08:00;15.30;;;8.88;;
18659;SDS011;9459;50.254;19.014;2023-02-20T15:10:32;12.65;;;8.65;;
18659;SDS011;9459;50.254;19.014;2023-02-20T15:13:04;13.15;;;8.88;;
18659;SDS011;9459;50.254;19.014;2023-02-20T15:15:36;11.95;;;7.07;;
18659;SDS011;9459;50.254;19.014;2023-02-20T15:18:07;13.00;;;7.95;;
18659;SDS011;9459;50.254;19.014;2023-02-20T15:20:39;12.88;;;7.63;;
18659;SDS011;9459;50.254;19.014;2023-02-20T15:23:10;12.70;;;7.70;;
18659;SDS011;9459;50.254;19.014;2023-02-20T15:25:46;13.90;;;8.00;;
18659;SDS011;9459;50.254;19.014;2023-02-20T15:28:23;16.90;;;9.85;;
18659;SDS011;9459;50.254;19.014;2023-02-20T15:31:04;12.05;;;7.50;;
18659;SDS011;9459;50.254;19.014;2023-02-20T15:33:40;14.85;;;8.50;;
18659;SDS011;9459;50.254;19.014;2023-02-20T15:36:11;11.02;;;7.43;;
18659;SDS011;9459;50.254;19.014;2023-02-20T15:38:41;13.68;;;7.75;;
18659;SDS011;9459;50.254;19.014;2023-02-20T15:41:10;9.65;;;6.75;;
18659;SDS011;9459;50.254;19.014;2023-02-20T15:43:39;10.70;;;5.57;;
18659;SDS011;9459;50.254;19.014;2023-02-20T15:46:17;10.38;;;5.80;;
18659;SDS011;9459;50.254;19.014;2023-02-20T15:48:46;7.55;;;4.90;;
18659;SDS011;9459;50.254;19.014;2023-02-20T15:51:17;7.65;;;5.18;;
18659;SDS011;9459;50.254;19.014;2023-02-20T15:53:47;8.30;;;5.18;;
18659;SDS011;9459;50.254;19.014;2023-02-20T15:56:17;10.00;;;4.63;;